Main page
METAR-TAF:

METAR-TAF

Airports :

Casa Grande Municipal Airport

Casa Grande, Arizona, United States

latitude: 32-57N, longitude: 111-46W, elevation: 1463 ft

Current weather observation

The report was made 55 minutes ago, at 01:56 UTC
Wind 13 mph from the West/Northwest
Temperature 63°F
Humidity 36%
Pressure 29.91 in. Hg
Visibility: 10 miles
Clear sky

METAR: KCGZ 040156Z AUTO 30011KT 10SM CLR 17/02 A2991 RMK AO2 SLP127 T01720022 PNO $

Time: 19:51 (02:51 UTC)


TAF: missing

Weather observations and forecasts of more than 4000 airports (METAR and TAF reports).

The available stations are represented by yellow and red dots on the map.

Hover mouse over dot to see the name of the station.

Then click to see weather observations and forecasts.

To change the map : click on the green buttons with a black cross to zoom in, on the green button with a dash to zoom out, or on the green arrows for adjacent maps.


METAR-TAF: